Time;durP1;ratioP1;P1;durP2;ratioP2;P2;SDS_P1;SDS_P2;PMS_P1;PMS_P2;Temp;Humidity;BMP_temperature;BMP_pressure;BME280_temperature;BME280_humidity;BME280_pressure;Samples;Min_cycle;Max_cycle;Signal;HPM_P1;HPM_P2
2021/09/25 00:02:18;;;;;;;19.75;3.35;;;;;;;;;;5083490;28;20040;-40
2021/09/25 00:04:46;;;;;;;19.90;3.75;;;;;;;;;;5082456;28;20020;-40
2021/09/25 00:07:14;;;;;;;14.85;3.50;;;;;;;;;;5086752;28;20032;-39
2021/09/25 00:09:42;;;;;;;16.00;3.33;;;;;;;;;;5084277;28;20020;-40
2021/09/25 00:12:11;;;;;;;24.00;3.70;;;;;;;;;;5086175;28;20016;-41
2021/09/25 00:14:39;;;;;;;17.63;3.70;;;;;;;;;;5084768;28;20735;-40
2021/09/25 00:17:07;;;;;;;17.15;3.17;;;;;;;;;;5086649;28;20510;-39
2021/09/25 00:19:34;;;;;;;19.90;3.33;;;;;;;;;;5084051;28;20028;-39
2021/09/25 00:22:01;;;;;;;14.63;2.90;;;;;;;;;;5081912;28;20043;-40
2021/09/25 00:24:29;;;;;;;20.30;3.58;;;;;;;;;;5080169;28;20016;-39
2021/09/25 00:26:56;;;;;;;15.02;3.60;;;;;;;;;;5084841;28;20674;-40
2021/09/25 00:29:23;;;;;;;16.40;2.63;;;;;;;;;;5084360;28;20457;-41
2021/09/25 00:31:50;;;;;;;14.52;3.13;;;;;;;;;;5084521;28;20024;-39
2021/09/25 00:34:18;;;;;;;21.33;3.75;;;;;;;;;;5084580;28;20025;-40
2021/09/25 00:36:45;;;;;;;16.60;3.08;;;;;;;;;;5087446;28;20027;-41
2021/09/25 00:39:12;;;;;;;12.73;2.85;;;;;;;;;;5085745;28;20013;-40
2021/09/25 00:41:39;;;;;;;13.50;2.95;;;;;;;;;;5090297;28;20032;-40
2021/09/25 00:44:06;;;;;;;17.17;3.25;;;;;;;;;;5084731;28;20505;-41
2021/09/25 00:46:33;;;;;;;17.08;3.70;;;;;;;;;;5060469;28;20111;-40
2021/09/25 00:49:00;;;;;;;21.92;3.28;;;;;;;;;;5082793;28;20043;-40
2021/09/25 00:51:27;;;;;;;13.98;3.03;;;;;;;;;;5083144;28;20081;-40
2021/09/25 00:53:54;;;;;;;15.00;3.35;;;;;;;;;;5082871;28;20023;-40
2021/09/25 00:56:24;;;;;;;15.10;3.90;;;;;;;;;;5089240;28;20028;-40
2021/09/25 00:58:51;;;;;;;18.80;4.03;;;;;;;;;;5084584;28;20031;-40
2021/09/25 01:01:18;;;;;;;19.77;3.85;;;;;;;;;;5088276;28;20020;-41
2021/09/25 01:03:45;;;;;;;21.48;4.10;;;;;;;;;;5070861;28;20146;-41
2021/09/25 01:06:12;;;;;;;12.15;3.78;;;;;;;;;;5082853;28;20487;-40
2021/09/25 01:08:39;;;;;;;20.75;3.72;;;;;;;;;;5081227;28;20118;-39
2021/09/25 01:11:06;;;;;;;17.67;3.78;;;;;;;;;;5084266;28;20023;-39
2021/09/25 01:13:33;;;;;;;19.42;4.53;;;;;;;;;;5085532;28;20076;-40
2021/09/25 01:16:00;;;;;;;27.42;3.85;;;;;;;;;;5062979;28;20050;-38
2021/09/25 01:18:27;;;;;;;20.98;4.20;;;;;;;;;;5085550;28;20418;-40
2021/09/25 01:20:54;;;;;;;21.13;4.53;;;;;;;;;;5082964;28;20050;-39
2021/09/25 01:23:21;;;;;;;14.38;3.97;;;;;;;;;;5083172;28;20028;-39
2021/09/25 01:25:48;;;;;;;20.73;4.47;;;;;;;;;;5085488;28;20031;-40
2021/09/25 01:28:16;;;;;;;14.98;3.90;;;;;;;;;;5086730;28;20020;-41
2021/09/25 01:30:43;;;;;;;16.23;4.00;;;;;;;;;;5082532;28;20526;-40
2021/09/25 01:33:10;;;;;;;15.50;4.53;;;;;;;;;;5083306;28;20436;-41
2021/09/25 01:35:37;;;;;;;18.23;4.22;;;;;;;;;;5084214;28;20031;-41
2021/09/25 01:38:04;;;;;;;17.67;4.60;;;;;;;;;;5084605;28;20028;-42
2021/09/25 01:40:31;;;;;;;14.07;4.63;;;;;;;;;;5081857;28;20024;-43
2021/09/25 01:42:58;;;;;;;23.33;5.28;;;;;;;;;;5085038;28;20048;-41
2021/09/25 01:45:25;;;;;;;19.15;5.63;;;;;;;;;;5085384;28;20621;-42
2021/09/25 01:47:53;;;;;;;22.25;5.57;;;;;;;;;;5088521;28;20020;-41
2021/09/25 01:50:20;;;;;;;15.43;5.75;;;;;;;;;;5085846;28;20038;-41
2021/09/25 01:52:49;;;;;;;27.23;6.57;;;;;;;;;;5085653;28;20511;-40
2021/09/25 01:55:18;;;;;;;24.50;5.70;;;;;;;;;;5083955;28;20058;-43
2021/09/25 01:57:45;;;;;;;14.52;5.00;;;;;;;;;;5084853;28;20020;-40
2021/09/25 02:00:12;;;;;;;21.90;5.60;;;;;;;;;;5085025;28;20032;-40
2021/09/25 02:02:40;;;;;;;12.95;4.93;;;;;;;;;;5083719;28;20028;-40
2021/09/25 02:05:07;;;;;;;17.50;5.43;;;;;;;;;;5087856;28;20017;-41
2021/09/25 02:07:34;;;;;;;17.70;5.65;;;;;;;;;;5088428;28;20028;-41
2021/09/25 02:10:01;;;;;;;16.65;5.32;;;;;;;;;;5085157;28;20021;-40
2021/09/25 02:12:28;;;;;;;12.00;4.95;;;;;;;;;;5087887;28;20491;-40
2021/09/25 02:14:55;;;;;;;16.15;5.07;;;;;;;;;;5087909;28;20062;-40
2021/09/25 02:17:22;;;;;;;16.77;4.63;;;;;;;;;;5089552;28;20395;-40
2021/09/25 02:19:50;;;;;;;13.52;4.70;;;;;;;;;;5085877;28;20048;-41
2021/09/25 02:22:18;;;;;;;14.43;5.18;;;;;;;;;;5086257;28;20107;-40
2021/09/25 02:24:45;;;;;;;14.20;4.22;;;;;;;;;;5085205;28;20013;-40
2021/09/25 02:27:12;;;;;;;14.10;4.30;;;;;;;;;;5087498;28;20035;-40
2021/09/25 02:29:39;;;;;;;13.05;3.95;;;;;;;;;;5083574;28;20032;-40
2021/09/25 02:32:06;;;;;;;11.77;4.28;;;;;;;;;;5076082;28;20032;-42
2021/09/25 02:34:34;;;;;;;16.30;3.90;;;;;;;;;;5074829;28;20103;-40
2021/09/25 02:37:01;;;;;;;13.90;3.80;;;;;;;;;;5083985;28;20033;-40
2021/09/25 02:39:29;;;;;;;12.80;3.88;;;;;;;;;;5089372;28;20526;-42
2021/09/25 02:41:57;;;;;;;13.10;3.75;;;;;;;;;;5083563;28;20038;-42
2021/09/25 02:44:24;;;;;;;9.88;3.95;;;;;;;;;;5087169;28;20036;-41
2021/09/25 02:46:51;;;;;;;12.88;4.13;;;;;;;;;;5080464;28;20087;-40
2021/09/25 02:49:19;;;;;;;13.35;4.18;;;;;;;;;;5090903;28;20052;-41
2021/09/25 02:51:47;;;;;;;12.80;4.07;;;;;;;;;;5088268;28;20026;-42
2021/09/25 02:54:14;;;;;;;10.00;3.40;;;;;;;;;;5087723;28;20028;-42
2021/09/25 02:56:41;;;;;;;14.02;3.88;;;;;;;;;;5068893;28;20119;-43
2021/09/25 02:59:08;;;;;;;17.45;4.32;;;;;;;;;;5083384;28;20032;-42
2021/09/25 03:01:35;;;;;;;18.10;3.70;;;;;;;;;;5075417;28;20028;-43
2021/09/25 03:04:03;;;;;;;17.58;4.00;;;;;;;;;;5070286;28;20452;-41
2021/09/25 03:06:31;;;;;;;19.70;3.63;;;;;;;;;;5091972;28;20030;-41
2021/09/25 03:08:59;;;;;;;15.00;4.15;;;;;;;;;;5089932;28;20483;-42
2021/09/25 03:11:26;;;;;;;10.13;3.28;;;;;;;;;;5087539;28;20020;-40
2021/09/25 03:13:53;;;;;;;13.20;3.90;;;;;;;;;;5089678;28;20439;-42
2021/09/25 03:16:20;;;;;;;8.18;3.03;;;;;;;;;;5092145;28;20028;-41
2021/09/25 03:18:47;;;;;;;12.40;4.10;;;;;;;;;;5088806;28;20074;-41
2021/09/25 03:21:15;;;;;;;11.93;2.97;;;;;;;;;;5087694;28;20020;-40
2021/09/25 03:23:42;;;;;;;11.23;3.22;;;;;;;;;;5070763;28;20035;-42
2021/09/25 03:26:09;;;;;;;11.77;4.72;;;;;;;;;;5089135;28;20032;-39
2021/09/25 03:28:36;;;;;;;19.08;4.00;;;;;;;;;;5087914;28;20031;-39
2021/09/25 03:31:03;;;;;;;16.80;3.60;;;;;;;;;;5089244;28;20038;-41
2021/09/25 03:33:30;;;;;;;11.40;3.33;;;;;;;;;;5087791;28;20023;-41
2021/09/25 03:35:57;;;;;;;12.88;3.42;;;;;;;;;;5088323;28;20028;-42
2021/09/25 03:38:25;;;;;;;9.35;3.00;;;;;;;;;;5064958;28;20400;-42
2021/09/25 03:40:53;;;;;;;12.82;3.17;;;;;;;;;;5087619;28;20017;-42
2021/09/25 03:43:20;;;;;;;8.93;2.85;;;;;;;;;;5089162;28;20103;-42
2021/09/25 03:45:47;;;;;;;14.98;2.83;;;;;;;;;;5088693;28;20020;-40
2021/09/25 03:48:14;;;;;;;12.15;2.40;;;;;;;;;;5088636;28;20050;-41
2021/09/25 03:50:41;;;;;;;7.25;3.05;;;;;;;;;;5088410;28;20028;-40
2021/09/25 03:53:08;;;;;;;9.80;2.90;;;;;;;;;;5087950;28;20488;-40
2021/09/25 03:55:35;;;;;;;8.27;2.90;;;;;;;;;;5088655;28;20024;-40
2021/09/25 03:58:03;;;;;;;8.88;2.88;;;;;;;;;;5088366;28;20028;-40
2021/09/25 04:00:30;;;;;;;8.25;2.92;;;;;;;;;;5088044;28;20009;-39
2021/09/25 04:02:57;;;;;;;9.93;2.78;;;;;;;;;;5087032;28;20127;-42
2021/09/25 04:05:24;;;;;;;7.88;2.67;;;;;;;;;;5085349;28;20859;-40
2021/09/25 04:07:52;;;;;;;8.82;2.50;;;;;;;;;;5090251;28;20475;-40
2021/09/25 04:10:19;;;;;;;10.57;2.55;;;;;;;;;;5086372;28;20665;-42
2021/09/25 04:12:46;;;;;;;6.95;3.03;;;;;;;;;;5078910;28;20599;-42
2021/09/25 04:15:13;;;;;;;10.55;2.67;;;;;;;;;;5072479;28;20016;-43
2021/09/25 04:17:40;;;;;;;8.82;2.80;;;;;;;;;;5072239;28;20028;-42
2021/09/25 04:20:08;;;;;;;6.15;2.05;;;;;;;;;;5072487;28;20017;-43
2021/09/25 04:22:35;;;;;;;7.72;2.70;;;;;;;;;;5072195;28;20040;-42
2021/09/25 04:25:02;;;;;;;13.50;2.50;;;;;;;;;;5072470;28;20021;-42
2021/09/25 04:27:29;;;;;;;10.90;2.55;;;;;;;;;;5071501;28;20023;-42
2021/09/25 04:29:58;;;;;;;13.73;2.60;;;;;;;;;;5072446;28;20398;-42
2021/09/25 04:32:25;;;;;;;7.57;2.35;;;;;;;;;;5071948;28;20123;-42
2021/09/25 04:34:52;;;;;;;13.23;2.40;;;;;;;;;;5071858;28;20476;-43
2021/09/25 04:37:19;;;;;;;6.97;2.20;;;;;;;;;;5071723;28;20317;-43
2021/09/25 04:39:46;;;;;;;10.68;2.38;;;;;;;;;;5079874;28;20023;-43
2021/09/25 04:42:14;;;;;;;15.77;2.22;;;;;;;;;;5092102;28;20042;-42
2021/09/25 04:44:41;;;;;;;7.60;2.30;;;;;;;;;;5091669;28;20484;-42
2021/09/25 04:47:08;;;;;;;6.47;2.35;;;;;;;;;;5091539;28;20383;-45
2021/09/25 04:49:35;;;;;;;10.60;2.13;;;;;;;;;;5090595;28;20043;-43
2021/09/25 04:52:02;;;;;;;11.02;2.30;;;;;;;;;;5091526;28;20098;-41
2021/09/25 04:54:29;;;;;;;11.77;2.55;;;;;;;;;;5091307;28;20483;-42
2021/09/25 04:56:56;;;;;;;8.35;2.15;;;;;;;;;;5092482;28;20038;-42
2021/09/25 04:59:23;;;;;;;8.43;2.25;;;;;;;;;;5092148;28;20096;-43
2021/09/25 05:01:50;;;;;;;10.43;2.38;;;;;;;;;;5091612;28;20066;-42
2021/09/25 05:04:17;;;;;;;9.73;2.67;;;;;;;;;;5091538;28;20044;-42
2021/09/25 05:06:45;;;;;;;7.00;2.30;;;;;;;;;;5092277;28;20060;-41
2021/09/25 05:09:12;;;;;;;7.93;2.67;;;;;;;;;;5092087;28;20095;-41
2021/09/25 05:11:39;;;;;;;8.93;2.20;;;;;;;;;;5092130;28;20012;-42
2021/09/25 05:14:06;;;;;;;9.32;1.90;;;;;;;;;;5092160;28;20024;-41
2021/09/25 05:16:33;;;;;;;10.70;2.35;;;;;;;;;;5092013;28;20023;-43
2021/09/25 05:19:00;;;;;;;11.07;2.35;;;;;;;;;;5091959;28;20506;-40
2021/09/25 05:21:27;;;;;;;8.00;2.17;;;;;;;;;;5091574;28;20031;-40
2021/09/25 05:23:55;;;;;;;10.40;2.20;;;;;;;;;;5092209;28;20039;-42
2021/09/25 05:26:22;;;;;;;8.50;1.95;;;;;;;;;;5090686;28;20047;-41
2021/09/25 05:28:49;;;;;;;6.82;1.95;;;;;;;;;;5092051;28;20471;-41
2021/09/25 05:31:16;;;;;;;6.32;2.13;;;;;;;;;;5091364;28;20433;-41
2021/09/25 05:33:43;;;;;;;5.00;1.83;;;;;;;;;;5091435;28;20032;-42
2021/09/25 05:36:10;;;;;;;7.55;2.10;;;;;;;;;;5091305;28;20020;-40
2021/09/25 05:38:37;;;;;;;5.18;1.65;;;;;;;;;;5091979;28;20065;-41
2021/09/25 05:41:04;;;;;;;7.07;2.05;;;;;;;;;;5085088;28;20024;-40
2021/09/25 05:43:31;;;;;;;8.27;2.00;;;;;;;;;;5053446;28;20052;-40
2021/09/25 05:45:58;;;;;;;6.30;1.88;;;;;;;;;;5071068;28;20025;-41
2021/09/25 05:48:25;;;;;;;6.60;1.92;;;;;;;;;;5053599;28;20028;-42
2021/09/25 05:50:52;;;;;;;6.45;2.20;;;;;;;;;;5071636;28;20108;-41
2021/09/25 05:53:19;;;;;;;5.93;2.03;;;;;;;;;;5071148;28;20078;-43
2021/09/25 05:55:46;;;;;;;7.00;1.90;;;;;;;;;;5071511;28;20024;-42
2021/09/25 05:58:13;;;;;;;6.28;2.03;;;;;;;;;;5070989;28;20025;-40
2021/09/25 06:00:40;;;;;;;4.88;1.70;;;;;;;;;;5071718;28;20499;-41
2021/09/25 06:03:07;;;;;;;6.80;1.75;;;;;;;;;;5069675;28;20028;-42
2021/09/25 06:05:34;;;;;;;7.22;2.17;;;;;;;;;;5071363;28;20031;-42
2021/09/25 06:08:03;;;;;;;9.57;2.53;;;;;;;;;;5071166;28;20112;-41
2021/09/25 06:10:30;;;;;;;5.40;1.80;;;;;;;;;;5071200;28;20365;-41
2021/09/25 06:12:58;;;;;;;7.60;1.70;;;;;;;;;;5070948;28;20181;-41
2021/09/25 06:15:25;;;;;;;8.13;2.13;;;;;;;;;;5074501;28;20017;-41
2021/09/25 06:17:52;;;;;;;6.50;2.20;;;;;;;;;;5074453;28;20025;-42
2021/09/25 06:20:19;;;;;;;10.85;2.10;;;;;;;;;;5074743;28;20062;-40
2021/09/25 06:22:46;;;;;;;4.80;1.70;;;;;;;;;;5075299;28;20074;-41
2021/09/25 06:25:13;;;;;;;11.38;1.90;;;;;;;;;;5074738;28;20024;-41
2021/09/25 06:27:40;;;;;;;4.97;1.75;;;;;;;;;;5080296;28;20027;-43
2021/09/25 06:30:08;;;;;;;4.70;1.67;;;;;;;;;;5093920;28;20099;-41
2021/09/25 06:32:35;;;;;;;8.13;1.73;;;;;;;;;;5094753;28;20103;-42
2021/09/25 06:35:03;;;;;;;4.78;1.80;;;;;;;;;;5094864;28;20030;-42
2021/09/25 06:37:31;;;;;;;5.50;1.63;;;;;;;;;;5095159;28;20104;-42
2021/09/25 06:39:58;;;;;;;8.02;1.95;;;;;;;;;;5094811;28;20020;-40
2021/09/25 06:42:25;;;;;;;6.85;1.67;;;;;;;;;;5094697;28;20034;-41
2021/09/25 06:44:52;;;;;;;4.72;1.63;;;;;;;;;;5094576;28;20066;-42
2021/09/25 06:47:19;;;;;;;4.38;1.70;;;;;;;;;;5094667;28;20036;-41
2021/09/25 06:49:46;;;;;;;4.28;1.65;;;;;;;;;;5094439;28;20016;-41
2021/09/25 06:52:13;;;;;;;7.20;1.88;;;;;;;;;;5094923;28;20013;-43
2021/09/25 06:54:41;;;;;;;5.05;1.65;;;;;;;;;;5094336;28;20498;-40
2021/09/25 06:57:10;;;;;;;4.05;1.50;;;;;;;;;;5094064;28;20413;-41
2021/09/25 06:59:38;;;;;;;11.82;2.00;;;;;;;;;;5076316;28;20035;-42
2021/09/25 07:02:05;;;;;;;5.50;1.60;;;;;;;;;;5094243;28;20487;-42
2021/09/25 07:04:32;;;;;;;7.00;2.50;;;;;;;;;;5094556;28;20138;-41
2021/09/25 07:06:59;;;;;;;8.23;1.73;;;;;;;;;;5093620;28;20031;-41
2021/09/25 07:09:26;;;;;;;7.05;2.25;;;;;;;;;;5094637;28;20476;-42
2021/09/25 07:11:53;;;;;;;5.72;1.77;;;;;;;;;;5093833;28;20121;-40
2021/09/25 07:14:20;;;;;;;6.97;1.67;;;;;;;;;;5093998;28;20422;-41
2021/09/25 07:16:47;;;;;;;5.07;1.83;;;;;;;;;;5093975;28;20484;-42
2021/09/25 07:19:14;;;;;;;8.07;1.83;;;;;;;;;;5094325;28;20102;-41
2021/09/25 07:21:42;;;;;;;6.85;1.85;;;;;;;;;;5093777;28;20111;-40
2021/09/25 07:24:09;;;;;;;3.58;1.23;;;;;;;;;;5094621;28;20028;-42
2021/09/25 07:26:37;;;;;;;4.65;1.95;;;;;;;;;;5093303;28;20077;-42
2021/09/25 07:29:05;;;;;;;6.75;1.73;;;;;;;;;;5093803;28;20048;-42
2021/09/25 07:31:32;;;;;;;4.85;1.70;;;;;;;;;;5094000;28;20017;-41
2021/09/25 07:33:59;;;;;;;3.85;1.52;;;;;;;;;;5075574;28;20036;-41
2021/09/25 07:36:27;;;;;;;3.28;1.55;;;;;;;;;;5093887;28;20024;-41
2021/09/25 07:38:57;;;;;;;6.55;1.80;;;;;;;;;;5093424;28;20103;-41
2021/09/25 07:41:25;;;;;;;4.43;1.48;;;;;;;;;;5093949;28;20077;-42
2021/09/25 07:43:52;;;;;;;3.33;1.50;;;;;;;;;;5093312;28;20432;-41
2021/09/25 07:46:19;;;;;;;4.28;1.58;;;;;;;;;;5093972;28;20484;-41
2021/09/25 07:48:46;;;;;;;4.35;1.73;;;;;;;;;;5093440;28;20095;-42
2021/09/25 07:51:13;;;;;;;5.07;2.10;;;;;;;;;;5093827;28;20026;-41
2021/09/25 07:53:40;;;;;;;7.13;1.85;;;;;;;;;;5093171;28;20077;-41
2021/09/25 07:56:08;;;;;;;3.72;1.40;;;;;;;;;;5093914;28;20042;-40
2021/09/25 07:58:34;;;;;;;5.10;1.58;;;;;;;;;;5092805;28;20024;-42
2021/09/25 08:01:04;;;;;;;4.22;1.58;;;;;;;;;;5093729;28;20051;-40
2021/09/25 08:03:31;;;;;;;4.93;1.73;;;;;;;;;;5093087;28;20040;-40
2021/09/25 08:05:58;;;;;;;4.50;1.40;;;;;;;;;;5093565;28;20024;-41
2021/09/25 08:08:25;;;;;;;6.65;1.70;;;;;;;;;;5074854;28;20025;-41
2021/09/25 08:10:52;;;;;;;6.40;1.63;;;;;;;;;;5093440;28;20095;-41
2021/09/25 08:13:19;;;;;;;4.82;1.58;;;;;;;;;;5093151;28;20027;-42
2021/09/25 08:15:46;;;;;;;7.32;2.17;;;;;;;;;;5092890;28;20048;-42
2021/09/25 08:18:13;;;;;;;6.40;1.88;;;;;;;;;;5093188;28;20028;-41
2021/09/25 08:20:40;;;;;;;5.05;1.65;;;;;;;;;;5092625;28;20027;-41
2021/09/25 08:23:07;;;;;;;5.00;1.80;;;;;;;;;;5075040;28;20077;-41
2021/09/25 08:25:35;;;;;;;4.60;1.42;;;;;;;;;;5074477;28;20399;-41
2021/09/25 08:28:01;;;;;;;6.18;1.83;;;;;;;;;;5057915;28;20494;-42
2021/09/25 08:30:29;;;;;;;7.75;2.40;;;;;;;;;;5092440;28;20020;-41
2021/09/25 08:32:57;;;;;;;5.95;1.83;;;;;;;;;;5093223;28;20016;-41
2021/09/25 08:35:24;;;;;;;3.92;1.85;;;;;;;;;;5092330;28;20031;-42
2021/09/25 08:37:51;;;;;;;5.88;1.88;;;;;;;;;;5092278;28;20055;-41
2021/09/25 08:40:22;;;;;;;5.47;1.77;;;;;;;;;;5073994;28;20106;-40
2021/09/25 08:42:50;;;;;;;7.63;2.00;;;;;;;;;;5092731;28;20052;-43
2021/09/25 08:45:18;;;;;;;4.72;2.00;;;;;;;;;;5074657;28;20348;-41
2021/09/25 08:47:45;;;;;;;7.20;1.95;;;;;;;;;;5092614;28;20024;-42
2021/09/25 08:50:13;;;;;;;6.57;1.90;;;;;;;;;;5091976;28;20020;-40
2021/09/25 08:52:41;;;;;;;8.63;2.25;;;;;;;;;;5091995;28;20069;-40
2021/09/25 08:55:09;;;;;;;4.68;1.80;;;;;;;;;;5092855;28;20651;-42
2021/09/25 08:57:36;;;;;;;9.15;2.25;;;;;;;;;;5092393;28;20031;-42
2021/09/25 09:00:21;;;;;;;5.90;1.90;;;;;;;;;;5092344;28;20101;-41
2021/09/25 09:02:49;;;;;;;6.05;1.80;;;;;;;;;;5091936;28;20120;-42
2021/09/25 09:05:26;;;;;;;7.93;2.20;;;;;;;;;;5092524;28;20016;-42
2021/09/25 09:07:56;;;;;;;5.28;2.05;;;;;;;;;;5092092;28;20020;-43
2021/09/25 09:10:26;;;;;;;8.45;1.90;;;;;;;;;;5091840;28;20020;-41
2021/09/25 09:12:53;;;;;;;8.02;2.20;;;;;;;;;;5091829;28;20035;-40
2021/09/25 09:15:20;;;;;;;5.95;1.95;;;;;;;;;;5092494;28;20024;-41
2021/09/25 09:17:47;;;;;;;5.28;1.98;;;;;;;;;;5092076;28;20059;-41
2021/09/25 09:20:14;;;;;;;5.78;2.00;;;;;;;;;;5092110;28;20066;-41
2021/09/25 09:22:41;;;;;;;3.28;1.50;;;;;;;;;;5092078;28;20043;-42
2021/09/25 09:25:08;;;;;;;7.88;1.67;;;;;;;;;;5092137;28;20024;-42
2021/09/25 09:27:35;;;;;;;8.40;2.00;;;;;;;;;;5092018;28;20017;-41
2021/09/25 09:30:09;;;;;;;6.05;1.90;;;;;;;;;;5091363;28;20062;-41
2021/09/25 09:32:45;;;;;;;6.47;2.20;;;;;;;;;;5092181;28;20032;-41
2021/09/25 09:35:14;;;;;;;9.55;2.25;;;;;;;;;;5091706;28;20024;-41
2021/09/25 09:37:41;;;;;;;7.95;1.90;;;;;;;;;;5092252;28;20074;-41
2021/09/25 09:40:09;;;;;;;4.38;1.75;;;;;;;;;;5091257;28;20047;-41
2021/09/25 09:42:46;;;;;;;6.03;1.70;;;;;;;;;;5091885;28;20039;-40
2021/09/25 09:45:13;;;;;;;4.05;1.67;;;;;;;;;;5091673;28;20077;-41
2021/09/25 09:47:47;;;;;;;4.03;1.67;;;;;;;;;;5092000;28;20054;-40
2021/09/25 09:50:15;;;;;;;4.65;1.95;;;;;;;;;;5095578;28;20032;-42
2021/09/25 09:52:42;;;;;;;6.53;1.98;;;;;;;;;;5096367;28;20095;-41
2021/09/25 09:55:09;;;;;;;7.00;1.90;;;;;;;;;;5095676;28;20107;-40
2021/09/25 09:57:36;;;;;;;5.38;1.75;;;;;;;;;;5096115;28;20020;-41
2021/09/25 10:00:04;;;;;;;5.70;1.77;;;;;;;;;;5095589;28;20475;-40
2021/09/25 10:02:32;;;;;;;5.93;1.75;;;;;;;;;;5095646;28;20111;-41
2021/09/25 10:04:59;;;;;;;4.35;1.52;;;;;;;;;;5095695;28;20022;-41
2021/09/25 10:07:26;;;;;;;5.93;1.63;;;;;;;;;;5095427;28;20463;-41
2021/09/25 10:09:53;;;;;;;4.88;1.50;;;;;;;;;;5095299;28;20050;-40
2021/09/25 10:12:20;;;;;;;5.50;1.65;;;;;;;;;;5095264;28;20027;-41
2021/09/25 10:14:48;;;;;;;5.75;1.73;;;;;;;;;;5095761;28;20472;-40
2021/09/25 10:17:16;;;;;;;4.03;1.38;;;;;;;;;;5095053;28;20536;-41
2021/09/25 10:19:44;;;;;;;5.07;1.85;;;;;;;;;;5095522;28;20031;-41
2021/09/25 10:22:14;;;;;;;4.70;1.80;;;;;;;;;;5095117;28;20036;-42
2021/09/25 10:24:43;;;;;;;5.65;1.95;;;;;;;;;;5077145;28;20021;-41
2021/09/25 10:27:10;;;;;;;6.20;1.85;;;;;;;;;;5095049;28;20028;-41
2021/09/25 10:29:47;;;;;;;10.05;2.17;;;;;;;;;;5095494;28;20027;-40
2021/09/25 10:32:17;;;;;;;4.95;1.80;;;;;;;;;;5094728;28;20024;-40
2021/09/25 10:35:05;;;;;;;4.28;1.58;;;;;;;;;;5095396;28;20039;-40
2021/09/25 10:37:46;;;;;;;3.10;1.40;;;;;;;;;;5094919;28;20484;-41
2021/09/25 10:40:15;;;;;;;4.85;1.60;;;;;;;;;;5094886;28;20049;-41
2021/09/25 10:42:56;;;;;;;4.22;1.35;;;;;;;;;;5094433;28;20036;-41
2021/09/25 10:45:29;;;;;;;2.58;1.30;;;;;;;;;;5095038;28;20432;-41
2021/09/25 10:48:05;;;;;;;3.63;1.52;;;;;;;;;;5095050;28;20114;-41
2021/09/25 10:50:34;;;;;;;4.80;1.67;;;;;;;;;;5094732;28;20118;-44
2021/09/25 10:53:10;;;;;;;3.42;1.48;;;;;;;;;;5094742;28;20035;-40
2021/09/25 10:55:39;;;;;;;3.65;1.60;;;;;;;;;;5094780;28;20150;-40
2021/09/25 10:58:18;;;;;;;4.78;1.70;;;;;;;;;;5095082;28;20476;-43
2021/09/25 11:01:14;;;;;;;3.42;1.73;;;;;;;;;;5093754;28;20028;-41
2021/09/25 11:03:46;;;;;;;5.43;1.58;;;;;;;;;;5081215;28;20044;-41
2021/09/25 11:06:14;;;;;;;3.35;1.48;;;;;;;;;;5094950;28;20024;-42
2021/09/25 11:09:02;;;;;;;4.60;1.60;;;;;;;;;;5094643;28;20032;-41
2021/09/25 11:11:31;;;;;;;4.53;1.45;;;;;;;;;;5094499;28;20035;-41
2021/09/25 11:14:04;;;;;;;4.72;1.50;;;;;;;;;;5094446;28;20036;-42
2021/09/25 11:16:49;;;;;;;6.55;1.60;;;;;;;;;;5094017;28;20055;-41
2021/09/25 11:19:23;;;;;;;3.92;1.70;;;;;;;;;;5094587;28;20069;-41
2021/09/25 11:21:50;;;;;;;5.43;1.77;;;;;;;;;;5093567;28;20119;-42
2021/09/25 11:24:18;;;;;;;2.45;1.30;;;;;;;;;;5094061;28;20111;-41
2021/09/25 11:26:46;;;;;;;3.50;1.50;;;;;;;;;;5094023;28;20024;-42
2021/09/25 11:29:13;;;;;;;2.85;1.45;;;;;;;;;;5094552;28;20066;-41
2021/09/25 11:31:41;;;;;;;2.15;1.20;;;;;;;;;;5093698;28;20024;-41
2021/09/25 11:34:34;;;;;;;6.25;1.80;;;;;;;;;;5094285;28;20049;-41
2021/09/25 11:37:02;;;;;;;2.60;1.33;;;;;;;;;;5091038;28;20035;-40
2021/09/25 11:39:42;;;;;;;3.42;1.50;;;;;;;;;;5094199;28;20546;-42
2021/09/25 11:42:12;;;;;;;4.90;1.75;;;;;;;;;;5093341;28;20064;-41
2021/09/25 11:44:45;;;;;;;3.22;1.48;;;;;;;;;;5094052;28;20109;-40
2021/09/25 11:47:21;;;;;;;5.78;1.73;;;;;;;;;;5093619;28;20028;-44
2021/09/25 11:49:48;;;;;;;4.70;1.60;;;;;;;;;;5094134;28;20031;-41
2021/09/25 11:52:15;;;;;;;3.33;1.45;;;;;;;;;;5074013;28;20048;-42
2021/09/25 11:54:43;;;;;;;5.05;1.80;;;;;;;;;;5064001;28;20051;-41
2021/09/25 11:57:14;;;;;;;7.40;1.90;;;;;;;;;;5093394;28;20103;-42
2021/09/25 11:59:41;;;;;;;4.50;1.63;;;;;;;;;;5093804;28;20024;-42
2021/09/25 12:02:08;;;;;;;10.98;1.75;;;;;;;;;;5092996;28;20036;-42
2021/09/25 12:04:42;;;;;;;4.80;1.52;;;;;;;;;;5092694;28;20024;-40
2021/09/25 12:07:09;;;;;;;6.38;2.13;;;;;;;;;;5093418;28;20016;-41
2021/09/25 12:09:45;;;;;;;5.43;1.83;;;;;;;;;;5093392;28;20020;-41
2021/09/25 12:12:12;;;;;;;6.45;1.80;;;;;;;;;;5092229;28;20466;-41
2021/09/25 12:14:46;;;;;;;6.68;1.60;;;;;;;;;;5092809;28;20028;-41
2021/09/25 12:17:14;;;;;;;6.72;1.83;;;;;;;;;;5093423;28;20410;-44
2021/09/25 12:19:46;;;;;;;7.25;1.88;;;;;;;;;;5092991;28;20031;-42
2021/09/25 12:22:20;;;;;;;4.88;1.60;;;;;;;;;;5093304;28;20055;-42
2021/09/25 12:24:48;;;;;;;4.55;1.48;;;;;;;;;;5092723;28;20028;-41
2021/09/25 12:27:26;;;;;;;5.80;1.73;;;;;;;;;;5093191;28;20020;-42
2021/09/25 12:29:53;;;;;;;9.68;1.73;;;;;;;;;;5092658;28;20024;-42
2021/09/25 12:32:21;;;;;;;5.28;1.92;;;;;;;;;;5093003;28;20027;-41
2021/09/25 12:34:49;;;;;;;11.48;2.33;;;;;;;;;;5092395;28;20480;-42
2021/09/25 12:37:16;;;;;;;5.50;1.90;;;;;;;;;;5092905;28;20022;-43
2021/09/25 12:39:44;;;;;;;10.88;2.45;;;;;;;;;;5073605;28;20386;-42
2021/09/25 12:42:23;;;;;;;18.67;2.40;;;;;;;;;;5092149;28;20028;-41
2021/09/25 12:44:53;;;;;;;6.80;2.08;;;;;;;;;;5091254;28;20097;-41
2021/09/25 12:47:30;;;;;;;7.97;1.83;;;;;;;;;;5092128;28;20028;-40
2021/09/25 12:50:14;;;;;;;14.25;1.90;;;;;;;;;;5089895;28;20043;-42
2021/09/25 12:52:41;;;;;;;10.43;2.30;;;;;;;;;;5091471;28;20016;-40
2021/09/25 12:55:11;;;;;;;12.95;2.22;;;;;;;;;;5079936;28;20024;-42
2021/09/25 12:57:38;;;;;;;13.27;2.20;;;;;;;;;;5084461;28;20024;-41
2021/09/25 13:00:07;;;;;;;16.42;3.05;;;;;;;;;;5086549;28;20020;-40
2021/09/25 13:02:34;;;;;;;10.80;2.55;;;;;;;;;;5084788;28;20024;-40
2021/09/25 13:05:01;;;;;;;17.55;2.53;;;;;;;;;;5072559;28;20028;-42
2021/09/25 13:07:28;;;;;;;13.27;2.15;;;;;;;;;;5088943;28;20987;-40
2021/09/25 13:09:57;;;;;;;16.23;2.30;;;;;;;;;;5081094;28;20035;-41
2021/09/25 13:12:32;;;;;;;16.70;2.38;;;;;;;;;;5082890;28;20028;-41
2021/09/25 13:15:01;;;;;;;20.73;2.42;;;;;;;;;;5078732;28;20038;-40
2021/09/25 13:17:29;;;;;;;20.33;3.78;;;;;;;;;;5084510;28;20043;-40
2021/09/25 13:19:56;;;;;;;22.70;2.45;;;;;;;;;;5082149;28;20032;-40
2021/09/25 13:22:23;;;;;;;21.85;2.55;;;;;;;;;;5087058;28;20387;-40
2021/09/25 13:24:51;;;;;;;87.88;15.13;;;;;;;;;;5090784;28;20031;-40
2021/09/25 13:27:18;;;;;;;33.97;5.07;;;;;;;;;;5090024;28;20054;-39
2021/09/25 13:29:45;;;;;;;31.65;4.47;;;;;;;;;;5091692;28;20024;-40
2021/09/25 13:32:12;;;;;;;15.93;3.45;;;;;;;;;;5091298;28;20020;-40
2021/09/25 13:34:40;;;;;;;25.83;3.78;;;;;;;;;;5091110;28;20024;-41
2021/09/25 13:37:08;;;;;;;25.63;3.83;;;;;;;;;;5091237;28;20100;-38
2021/09/25 13:39:36;;;;;;;19.38;3.03;;;;;;;;;;5091723;28;20073;-43
2021/09/25 13:42:03;;;;;;;18.60;3.85;;;;;;;;;;5091541;28;20035;-41
2021/09/25 13:44:30;;;;;;;21.67;3.38;;;;;;;;;;5091231;28;20127;-39
2021/09/25 13:46:59;;;;;;;22.52;3.03;;;;;;;;;;5092131;28;20052;-41
2021/09/25 13:49:26;;;;;;;14.13;3.10;;;;;;;;;;5091659;28;20074;-39
2021/09/25 13:51:53;;;;;;;25.17;3.00;;;;;;;;;;5092054;28;20028;-42
2021/09/25 13:54:20;;;;;;;22.88;3.40;;;;;;;;;;5091233;28;20016;-39
2021/09/25 13:56:47;;;;;;;23.27;3.22;;;;;;;;;;5091851;28;20027;-41
2021/09/25 13:59:14;;;;;;;19.65;3.15;;;;;;;;;;5091485;28;20035;-40
2021/09/25 14:01:41;;;;;;;17.90;2.85;;;;;;;;;;5091513;28;20787;-39
2021/09/25 14:04:09;;;;;;;24.85;3.22;;;;;;;;;;5091920;28;20036;-39
2021/09/25 14:06:36;;;;;;;19.23;3.15;;;;;;;;;;5091288;28;20043;-39
2021/09/25 14:09:03;;;;;;;26.02;3.15;;;;;;;;;;5092212;28;20495;-39
2021/09/25 14:11:31;;;;;;;26.02;2.92;;;;;;;;;;5091410;28;20024;-42
2021/09/25 14:13:58;;;;;;;26.98;4.55;;;;;;;;;;5091696;28;20371;-42
2021/09/25 14:16:25;;;;;;;24.00;3.80;;;;;;;;;;5091137;28;20024;-40
2021/09/25 14:18:53;;;;;;;24.15;4.15;;;;;;;;;;5091674;28;20107;-40
2021/09/25 14:21:21;;;;;;;27.88;3.33;;;;;;;;;;5091276;28;20084;-39
2021/09/25 14:23:48;;;;;;;24.10;3.58;;;;;;;;;;5091544;28;20055;-40
2021/09/25 14:26:15;;;;;;;33.40;3.83;;;;;;;;;;5091575;28;20020;-40
2021/09/25 14:28:42;;;;;;;32.00;3.78;;;;;;;;;;5091574;28;20422;-39
2021/09/25 14:31:09;;;;;;;37.03;3.75;;;;;;;;;;5091512;28;20031;-41
2021/09/25 14:33:37;;;;;;;37.20;3.63;;;;;;;;;;5091387;28;20127;-38
2021/09/25 14:36:05;;;;;;;26.98;3.92;;;;;;;;;;5093840;28;20024;-39
2021/09/25 14:38:32;;;;;;;27.70;3.97;;;;;;;;;;5094690;28;20027;-39
2021/09/25 14:41:00;;;;;;;36.00;4.70;;;;;;;;;;5095345;28;20020;-39
2021/09/25 14:43:28;;;;;;;29.88;3.65;;;;;;;;;;5094406;28;20048;-41
2021/09/25 14:45:55;;;;;;;28.70;4.15;;;;;;;;;;5094826;28;20027;-39